sensor_id;sensor_type;location;lat;lon;timestamp;P1;durP1;ratioP1;P2;durP2;ratioP2
80694;SDS011;70059;42.702;23.312;2024-02-26T00:01:55;42.55;;;27.48;;
80694;SDS011;70059;42.702;23.312;2024-02-26T00:04:21;87.38;;;37.75;;
80694;SDS011;70059;42.702;23.312;2024-02-26T00:06:47;111.85;;;45.63;;
80694;SDS011;70059;42.702;23.312;2024-02-26T00:09:15;72.13;;;33.50;;
80694;SDS011;70059;42.702;23.312;2024-02-26T00:11:41;64.55;;;33.70;;
80694;SDS011;70059;42.702;23.312;2024-02-26T00:14:06;57.47;;;31.23;;
80694;SDS011;70059;42.702;23.312;2024-02-26T00:16:32;65.93;;;34.17;;
80694;SDS011;70059;42.702;23.312;2024-02-26T00:18:58;64.40;;;32.17;;
80694;SDS011;70059;42.702;23.312;2024-02-26T00:21:23;61.67;;;31.90;;
80694;SDS011;70059;42.702;23.312;2024-02-26T00:23:49;47.90;;;28.17;;
80694;SDS011;70059;42.702;23.312;2024-02-26T00:26:16;51.00;;;29.35;;
80694;SDS011;70059;42.702;23.312;2024-02-26T00:28:41;45.90;;;28.05;;
80694;SDS011;70059;42.702;23.312;2024-02-26T00:31:07;50.35;;;30.05;;
80694;SDS011;70059;42.702;23.312;2024-02-26T00:33:32;49.03;;;29.05;;
80694;SDS011;70059;42.702;23.312;2024-02-26T00:35:58;48.33;;;28.83;;
80694;SDS011;70059;42.702;23.312;2024-02-26T00:38:24;46.88;;;28.05;;
80694;SDS011;70059;42.702;23.312;2024-02-26T00:40:49;47.58;;;29.00;;
80694;SDS011;70059;42.702;23.312;2024-02-26T00:43:15;48.03;;;27.52;;
80694;SDS011;70059;42.702;23.312;2024-02-26T00:45:41;48.20;;;28.08;;
80694;SDS011;70059;42.702;23.312;2024-02-26T00:48:06;44.20;;;27.85;;
80694;SDS011;70059;42.702;23.312;2024-02-26T00:50:32;40.40;;;25.70;;
80694;SDS011;70059;42.702;23.312;2024-02-26T00:53:01;48.25;;;27.92;;
80694;SDS011;70059;42.702;23.312;2024-02-26T00:55:27;42.88;;;28.02;;
80694;SDS011;70059;42.702;23.312;2024-02-26T00:57:56;46.58;;;27.40;;
80694;SDS011;70059;42.702;23.312;2024-02-26T01:00:21;41.50;;;27.30;;
80694;SDS011;70059;42.702;23.312;2024-02-26T01:02:48;50.42;;;29.83;;
80694;SDS011;70059;42.702;23.312;2024-02-26T01:05:14;54.72;;;30.60;;
80694;SDS011;70059;42.702;23.312;2024-02-26T01:07:41;47.33;;;29.13;;
80694;SDS011;70059;42.702;23.312;2024-02-26T01:10:07;50.53;;;28.48;;
80694;SDS011;70059;42.702;23.312;2024-02-26T01:12:33;46.17;;;26.02;;
80694;SDS011;70059;42.702;23.312;2024-02-26T01:15:00;41.50;;;25.77;;
80694;SDS011;70059;42.702;23.312;2024-02-26T01:17:27;38.05;;;25.45;;
80694;SDS011;70059;42.702;23.312;2024-02-26T01:19:53;38.42;;;25.17;;
80694;SDS011;70059;42.702;23.312;2024-02-26T01:22:19;47.83;;;27.15;;
80694;SDS011;70059;42.702;23.312;2024-02-26T01:24:45;43.17;;;27.45;;
80694;SDS011;70059;42.702;23.312;2024-02-26T01:27:10;42.08;;;26.73;;
80694;SDS011;70059;42.702;23.312;2024-02-26T01:29:36;46.38;;;28.23;;
80694;SDS011;70059;42.702;23.312;2024-02-26T01:32:02;43.90;;;26.48;;
80694;SDS011;70059;42.702;23.312;2024-02-26T01:34:29;38.38;;;25.85;;
80694;SDS011;70059;42.702;23.312;2024-02-26T01:36:55;40.63;;;26.17;;
80694;SDS011;70059;42.702;23.312;2024-02-26T01:39:21;40.22;;;25.17;;
80694;SDS011;70059;42.702;23.312;2024-02-26T01:41:47;39.35;;;25.20;;
80694;SDS011;70059;42.702;23.312;2024-02-26T01:44:13;38.75;;;25.98;;
80694;SDS011;70059;42.702;23.312;2024-02-26T01:46:39;36.88;;;24.15;;
80694;SDS011;70059;42.702;23.312;2024-02-26T01:49:05;39.35;;;24.95;;
80694;SDS011;70059;42.702;23.312;2024-02-26T01:51:32;40.53;;;26.60;;
80694;SDS011;70059;42.702;23.312;2024-02-26T01:53:59;38.53;;;24.75;;
80694;SDS011;70059;42.702;23.312;2024-02-26T01:56:27;38.88;;;25.98;;
80694;SDS011;70059;42.702;23.312;2024-02-26T01:58:56;39.33;;;25.20;;
80694;SDS011;70059;42.702;23.312;2024-02-26T02:01:25;41.60;;;25.17;;
80694;SDS011;70059;42.702;23.312;2024-02-26T02:03:52;36.53;;;25.27;;
80694;SDS011;70059;42.702;23.312;2024-02-26T02:06:19;40.58;;;25.55;;
80694;SDS011;70059;42.702;23.312;2024-02-26T02:08:45;43.30;;;25.48;;
80694;SDS011;70059;42.702;23.312;2024-02-26T02:11:11;38.42;;;24.75;;
80694;SDS011;70059;42.702;23.312;2024-02-26T02:13:37;39.45;;;25.27;;
80694;SDS011;70059;42.702;23.312;2024-02-26T02:16:03;45.10;;;26.10;;
80694;SDS011;70059;42.702;23.312;2024-02-26T02:18:29;42.00;;;25.95;;
80694;SDS011;70059;42.702;23.312;2024-02-26T02:20:55;43.22;;;25.55;;
80694;SDS011;70059;42.702;23.312;2024-02-26T02:23:24;38.25;;;25.65;;
80694;SDS011;70059;42.702;23.312;2024-02-26T02:25:50;41.85;;;25.95;;
80694;SDS011;70059;42.702;23.312;2024-02-26T02:28:15;41.25;;;26.08;;
80694;SDS011;70059;42.702;23.312;2024-02-26T02:30:41;40.97;;;25.38;;
80694;SDS011;70059;42.702;23.312;2024-02-26T02:33:07;40.63;;;25.30;;
80694;SDS011;70059;42.702;23.312;2024-02-26T02:35:32;40.08;;;25.70;;
80694;SDS011;70059;42.702;23.312;2024-02-26T02:37:58;44.45;;;27.33;;
80694;SDS011;70059;42.702;23.312;2024-02-26T02:40:24;43.42;;;26.85;;
80694;SDS011;70059;42.702;23.312;2024-02-26T02:42:49;42.97;;;27.63;;
80694;SDS011;70059;42.702;23.312;2024-02-26T02:45:15;41.38;;;25.83;;
80694;SDS011;70059;42.702;23.312;2024-02-26T02:47:41;42.05;;;26.25;;
80694;SDS011;70059;42.702;23.312;2024-02-26T02:50:06;42.45;;;27.52;;
80694;SDS011;70059;42.702;23.312;2024-02-26T02:52:32;39.08;;;26.73;;
80694;SDS011;70059;42.702;23.312;2024-02-26T02:54:58;39.92;;;26.27;;
80694;SDS011;70059;42.702;23.312;2024-02-26T02:57:24;50.08;;;29.60;;
80694;SDS011;70059;42.702;23.312;2024-02-26T02:59:50;42.90;;;27.77;;
80694;SDS011;70059;42.702;23.312;2024-02-26T03:02:15;44.60;;;28.10;;
80694;SDS011;70059;42.702;23.312;2024-02-26T03:04:41;45.70;;;28.10;;
80694;SDS011;70059;42.702;23.312;2024-02-26T03:07:06;41.70;;;28.30;;
80694;SDS011;70059;42.702;23.312;2024-02-26T03:09:32;44.20;;;27.98;;
80694;SDS011;70059;42.702;23.312;2024-02-26T03:11:58;44.90;;;28.17;;
80694;SDS011;70059;42.702;23.312;2024-02-26T03:14:23;41.47;;;27.63;;
80694;SDS011;70059;42.702;23.312;2024-02-26T03:16:52;43.50;;;27.85;;
80694;SDS011;70059;42.702;23.312;2024-02-26T03:19:19;44.03;;;27.70;;
80694;SDS011;70059;42.702;23.312;2024-02-26T03:21:45;39.97;;;25.65;;
80694;SDS011;70059;42.702;23.312;2024-02-26T03:24:10;38.75;;;26.30;;
80694;SDS011;70059;42.702;23.312;2024-02-26T03:26:37;43.72;;;28.25;;
80694;SDS011;70059;42.702;23.312;2024-02-26T03:29:03;41.28;;;28.00;;
80694;SDS011;70059;42.702;23.312;2024-02-26T03:31:29;46.40;;;28.23;;
80694;SDS011;70059;42.702;23.312;2024-02-26T03:33:55;38.97;;;26.90;;
80694;SDS011;70059;42.702;23.312;2024-02-26T03:36:20;42.50;;;27.40;;
80694;SDS011;70059;42.702;23.312;2024-02-26T03:38:49;48.38;;;27.63;;
80694;SDS011;70059;42.702;23.312;2024-02-26T03:41:14;42.05;;;26.67;;
80694;SDS011;70059;42.702;23.312;2024-02-26T03:43:40;41.80;;;25.67;;
80694;SDS011;70059;42.702;23.312;2024-02-26T03:46:09;42.70;;;26.00;;
80694;SDS011;70059;42.702;23.312;2024-02-26T03:48:39;42.50;;;26.38;;
80694;SDS011;70059;42.702;23.312;2024-02-26T03:51:05;41.85;;;26.25;;
80694;SDS011;70059;42.702;23.312;2024-02-26T03:53:33;36.70;;;24.00;;
80694;SDS011;70059;42.702;23.312;2024-02-26T03:56:02;44.88;;;27.20;;
80694;SDS011;70059;42.702;23.312;2024-02-26T03:58:28;48.75;;;26.80;;
80694;SDS011;70059;42.702;23.312;2024-02-26T04:00:54;37.70;;;24.15;;
80694;SDS011;70059;42.702;23.312;2024-02-26T04:03:20;38.28;;;25.60;;
80694;SDS011;70059;42.702;23.312;2024-02-26T04:05:45;38.58;;;24.80;;
80694;SDS011;70059;42.702;23.312;2024-02-26T04:08:11;39.42;;;24.05;;
80694;SDS011;70059;42.702;23.312;2024-02-26T04:10:36;40.38;;;25.42;;
80694;SDS011;70059;42.702;23.312;2024-02-26T04:13:06;35.92;;;24.70;;
80694;SDS011;70059;42.702;23.312;2024-02-26T04:15:32;38.88;;;24.85;;
80694;SDS011;70059;42.702;23.312;2024-02-26T04:17:58;42.47;;;26.75;;
80694;SDS011;70059;42.702;23.312;2024-02-26T04:20:24;40.00;;;25.75;;
80694;SDS011;70059;42.702;23.312;2024-02-26T04:22:49;40.58;;;25.63;;
80694;SDS011;70059;42.702;23.312;2024-02-26T04:25:15;41.42;;;27.02;;
80694;SDS011;70059;42.702;23.312;2024-02-26T04:27:40;48.72;;;27.35;;
80694;SDS011;70059;42.702;23.312;2024-02-26T04:30:06;45.03;;;26.58;;
80694;SDS011;70059;42.702;23.312;2024-02-26T04:32:33;43.17;;;27.00;;
80694;SDS011;70059;42.702;23.312;2024-02-26T04:34:59;45.15;;;28.85;;
80694;SDS011;70059;42.702;23.312;2024-02-26T04:37:25;48.00;;;29.23;;
80694;SDS011;70059;42.702;23.312;2024-02-26T04:39:57;49.58;;;30.33;;
80694;SDS011;70059;42.702;23.312;2024-02-26T04:42:23;56.70;;;31.45;;
80694;SDS011;70059;42.702;23.312;2024-02-26T04:44:48;56.72;;;30.92;;
80694;SDS011;70059;42.702;23.312;2024-02-26T04:47:14;51.15;;;31.25;;
80694;SDS011;70059;42.702;23.312;2024-02-26T04:49:40;53.83;;;31.83;;
80694;SDS011;70059;42.702;23.312;2024-02-26T04:52:06;54.63;;;31.67;;
80694;SDS011;70059;42.702;23.312;2024-02-26T04:54:32;53.55;;;32.13;;
80694;SDS011;70059;42.702;23.312;2024-02-26T04:56:57;50.70;;;32.55;;
80694;SDS011;70059;42.702;23.312;2024-02-26T04:59:24;54.53;;;32.50;;
80694;SDS011;70059;42.702;23.312;2024-02-26T05:01:50;52.70;;;32.60;;
80694;SDS011;70059;42.702;23.312;2024-02-26T05:04:17;48.85;;;31.45;;
80694;SDS011;70059;42.702;23.312;2024-02-26T05:06:43;55.85;;;32.25;;
80694;SDS011;70059;42.702;23.312;2024-02-26T05:09:09;55.85;;;32.20;;
80694;SDS011;70059;42.702;23.312;2024-02-26T05:11:34;53.30;;;31.98;;
80694;SDS011;70059;42.702;23.312;2024-02-26T05:14:00;56.95;;;32.65;;
80694;SDS011;70059;42.702;23.312;2024-02-26T05:16:26;55.22;;;32.70;;
80694;SDS011;70059;42.702;23.312;2024-02-26T05:18:56;48.25;;;30.92;;
80694;SDS011;70059;42.702;23.312;2024-02-26T05:21:22;61.40;;;33.92;;
80694;SDS011;70059;42.702;23.312;2024-02-26T05:23:47;54.28;;;32.05;;
80694;SDS011;70059;42.702;23.312;2024-02-26T05:26:20;61.88;;;31.92;;
80694;SDS011;70059;42.702;23.312;2024-02-26T05:28:49;56.88;;;31.25;;
80694;SDS011;70059;42.702;23.312;2024-02-26T05:31:18;45.65;;;30.45;;
80694;SDS011;70059;42.702;23.312;2024-02-26T05:33:44;46.17;;;29.95;;
80694;SDS011;70059;42.702;23.312;2024-02-26T05:36:10;49.55;;;28.08;;
80694;SDS011;70059;42.702;23.312;2024-02-26T05:38:43;49.55;;;29.17;;
80694;SDS011;70059;42.702;23.312;2024-02-26T05:41:11;47.00;;;27.83;;
80694;SDS011;70059;42.702;23.312;2024-02-26T05:43:39;56.17;;;30.02;;
80694;SDS011;70059;42.702;23.312;2024-02-26T05:46:05;51.70;;;29.33;;
80694;SDS011;70059;42.702;23.312;2024-02-26T05:48:31;47.90;;;28.50;;
80694;SDS011;70059;42.702;23.312;2024-02-26T05:50:58;50.67;;;29.50;;
80694;SDS011;70059;42.702;23.312;2024-02-26T05:53:24;51.63;;;29.88;;
80694;SDS011;70059;42.702;23.312;2024-02-26T05:55:49;47.85;;;29.60;;
80694;SDS011;70059;42.702;23.312;2024-02-26T05:58:15;48.03;;;28.80;;
80694;SDS011;70059;42.702;23.312;2024-02-26T06:00:44;49.85;;;29.17;;
80694;SDS011;70059;42.702;23.312;2024-02-26T06:03:10;47.35;;;29.05;;
80694;SDS011;70059;42.702;23.312;2024-02-26T06:05:36;48.50;;;29.15;;
80694;SDS011;70059;42.702;23.312;2024-02-26T06:08:09;48.78;;;28.83;;
80694;SDS011;70059;42.702;23.312;2024-02-26T06:10:37;53.30;;;27.83;;
80694;SDS011;70059;42.702;23.312;2024-02-26T06:13:27;51.22;;;29.02;;
80694;SDS011;70059;42.702;23.312;2024-02-26T06:15:56;51.30;;;29.80;;
80694;SDS011;70059;42.702;23.312;2024-02-26T06:18:22;53.42;;;29.20;;
80694;SDS011;70059;42.702;23.312;2024-02-26T06:20:48;52.97;;;31.00;;
80694;SDS011;70059;42.702;23.312;2024-02-26T06:23:13;50.35;;;29.80;;
80694;SDS011;70059;42.702;23.312;2024-02-26T06:25:39;45.38;;;29.10;;
80694;SDS011;70059;42.702;23.312;2024-02-26T06:28:08;49.53;;;29.55;;
80694;SDS011;70059;42.702;23.312;2024-02-26T06:30:34;52.28;;;30.13;;
80694;SDS011;70059;42.702;23.312;2024-02-26T06:33:00;51.03;;;30.27;;
80694;SDS011;70059;42.702;23.312;2024-02-26T06:35:26;53.17;;;32.00;;
80694;SDS011;70059;42.702;23.312;2024-02-26T06:37:52;56.03;;;31.40;;
80694;SDS011;70059;42.702;23.312;2024-02-26T06:40:21;52.75;;;30.55;;
80694;SDS011;70059;42.702;23.312;2024-02-26T06:42:47;49.80;;;29.95;;
80694;SDS011;70059;42.702;23.312;2024-02-26T06:45:15;54.28;;;29.40;;
80694;SDS011;70059;42.702;23.312;2024-02-26T06:47:43;46.88;;;29.92;;
80694;SDS011;70059;42.702;23.312;2024-02-26T06:50:11;45.65;;;29.42;;
80694;SDS011;70059;42.702;23.312;2024-02-26T06:52:39;52.95;;;30.27;;
80694;SDS011;70059;42.702;23.312;2024-02-26T06:55:05;53.30;;;29.35;;
80694;SDS011;70059;42.702;23.312;2024-02-26T06:57:33;49.95;;;28.52;;
80694;SDS011;70059;42.702;23.312;2024-02-26T07:00:03;48.58;;;29.13;;
80694;SDS011;70059;42.702;23.312;2024-02-26T07:02:30;52.58;;;30.83;;
80694;SDS011;70059;42.702;23.312;2024-02-26T07:04:56;44.97;;;28.88;;
80694;SDS011;70059;42.702;23.312;2024-02-26T07:07:23;51.58;;;31.52;;
80694;SDS011;70059;42.702;23.312;2024-02-26T07:09:50;52.53;;;30.25;;
80694;SDS011;70059;42.702;23.312;2024-02-26T07:12:19;58.00;;;30.35;;
80694;SDS011;70059;42.702;23.312;2024-02-26T07:14:49;48.95;;;28.88;;
80694;SDS011;70059;42.702;23.312;2024-02-26T07:17:16;52.08;;;32.15;;
80694;SDS011;70059;42.702;23.312;2024-02-26T07:19:41;49.42;;;30.65;;
80694;SDS011;70059;42.702;23.312;2024-02-26T07:22:09;47.58;;;29.55;;
80694;SDS011;70059;42.702;23.312;2024-02-26T07:24:35;48.50;;;31.48;;
80694;SDS011;70059;42.702;23.312;2024-02-26T07:27:01;49.15;;;30.92;;
80694;SDS011;70059;42.702;23.312;2024-02-26T07:29:30;52.03;;;33.25;;
80694;SDS011;70059;42.702;23.312;2024-02-26T07:31:56;57.05;;;34.67;;
80694;SDS011;70059;42.702;23.312;2024-02-26T07:34:25;53.13;;;34.80;;
80694;SDS011;70059;42.702;23.312;2024-02-26T07:36:55;60.88;;;35.60;;
80694;SDS011;70059;42.702;23.312;2024-02-26T07:39:21;56.25;;;36.08;;
80694;SDS011;70059;42.702;23.312;2024-02-26T07:41:48;56.00;;;35.00;;
80694;SDS011;70059;42.702;23.312;2024-02-26T07:44:16;53.10;;;33.88;;
80694;SDS011;70059;42.702;23.312;2024-02-26T07:46:42;55.40;;;34.65;;
80694;SDS011;70059;42.702;23.312;2024-02-26T07:49:11;54.35;;;34.90;;
80694;SDS011;70059;42.702;23.312;2024-02-26T07:51:40;49.47;;;32.33;;
80694;SDS011;70059;42.702;23.312;2024-02-26T07:54:10;50.63;;;32.55;;
80694;SDS011;70059;42.702;23.312;2024-02-26T07:56:40;53.65;;;31.90;;
80694;SDS011;70059;42.702;23.312;2024-02-26T07:59:10;50.53;;;32.17;;
80694;SDS011;70059;42.702;23.312;2024-02-26T08:01:51;47.15;;;32.40;;
80694;SDS011;70059;42.702;23.312;2024-02-26T08:04:22;55.90;;;36.58;;
80694;SDS011;70059;42.702;23.312;2024-02-26T08:06:50;63.90;;;39.92;;
80694;SDS011;70059;42.702;23.312;2024-02-26T08:09:16;59.17;;;37.75;;
80694;SDS011;70059;42.702;23.312;2024-02-26T08:11:50;61.80;;;38.35;;
80694;SDS011;70059;42.702;23.312;2024-02-26T08:14:27;58.28;;;36.25;;
80694;SDS011;70059;42.702;23.312;2024-02-26T08:16:57;51.83;;;31.02;;
80694;SDS011;70059;42.702;23.312;2024-02-26T08:19:24;47.55;;;29.23;;
80694;SDS011;70059;42.702;23.312;2024-02-26T08:21:50;50.45;;;31.48;;
80694;SDS011;70059;42.702;23.312;2024-02-26T08:24:16;51.58;;;34.15;;
80694;SDS011;70059;42.702;23.312;2024-02-26T08:26:45;52.47;;;34.97;;
80694;SDS011;70059;42.702;23.312;2024-02-26T08:29:11;56.42;;;36.17;;
80694;SDS011;70059;42.702;23.312;2024-02-26T08:31:38;50.03;;;31.92;;
80694;SDS011;70059;42.702;23.312;2024-02-26T08:34:10;52.28;;;30.80;;
80694;SDS011;70059;42.702;23.312;2024-02-26T08:36:42;47.05;;;30.77;;
80694;SDS011;70059;42.702;23.312;2024-02-26T08:39:12;49.58;;;30.73;;
80694;SDS011;70059;42.702;23.312;2024-02-26T08:41:41;46.60;;;29.35;;
80694;SDS011;70059;42.702;23.312;2024-02-26T08:44:07;48.08;;;28.80;;
80694;SDS011;70059;42.702;23.312;2024-02-26T08:46:32;48.28;;;29.42;;
80694;SDS011;70059;42.702;23.312;2024-02-26T08:49:03;47.25;;;28.02;;
80694;SDS011;70059;42.702;23.312;2024-02-26T08:51:29;42.25;;;27.48;;
80694;SDS011;70059;42.702;23.312;2024-02-26T08:54:18;39.55;;;26.83;;
80694;SDS011;70059;42.702;23.312;2024-02-26T08:57:04;39.10;;;24.70;;
80694;SDS011;70059;42.702;23.312;2024-02-26T08:59:35;33.13;;;22.77;;
80694;SDS011;70059;42.702;23.312;2024-02-26T09:02:01;31.38;;;23.08;;
80694;SDS011;70059;42.702;23.312;2024-02-26T09:04:28;36.13;;;22.80;;
80694;SDS011;70059;42.702;23.312;2024-02-26T09:07:03;29.88;;;21.90;;
80694;SDS011;70059;42.702;23.312;2024-02-26T09:09:28;35.97;;;23.05;;
80694;SDS011;70059;42.702;23.312;2024-02-26T09:11:58;29.83;;;22.65;;
80694;SDS011;70059;42.702;23.312;2024-02-26T09:14:24;34.05;;;24.45;;
80694;SDS011;70059;42.702;23.312;2024-02-26T09:17:10;34.22;;;23.52;;
80694;SDS011;70059;42.702;23.312;2024-02-26T09:20:10;36.55;;;22.48;;
80694;SDS011;70059;42.702;23.312;2024-02-26T09:22:49;30.38;;;21.75;;
80694;SDS011;70059;42.702;23.312;2024-02-26T09:25:25;27.17;;;19.48;;
80694;SDS011;70059;42.702;23.312;2024-02-26T09:27:51;27.10;;;18.70;;
80694;SDS011;70059;42.702;23.312;2024-02-26T09:30:30;29.60;;;19.67;;
80694;SDS011;70059;42.702;23.312;2024-02-26T09:33:03;29.52;;;19.40;;
80694;SDS011;70059;42.702;23.312;2024-02-26T09:35:29;24.65;;;17.95;;
80694;SDS011;70059;42.702;23.312;2024-02-26T09:37:55;18.17;;;14.98;;
80694;SDS011;70059;42.702;23.312;2024-02-26T09:40:36;17.08;;;14.05;;
80694;SDS011;70059;42.702;23.312;2024-02-26T09:45:43;15.70;;;12.38;;
80694;SDS011;70059;42.702;23.312;2024-02-26T09:48:09;13.77;;;12.25;;
80694;SDS011;70059;42.702;23.312;2024-02-26T09:50:49;13.88;;;12.45;;
80694;SDS011;70059;42.702;23.312;2024-02-26T09:53:24;15.88;;;11.82;;
80694;SDS011;70059;42.702;23.312;2024-02-26T09:56:12;14.40;;;12.13;;
80694;SDS011;70059;42.702;23.312;2024-02-26T09:58:43;15.80;;;12.95;;
80694;SDS011;70059;42.702;23.312;2024-02-26T10:01:13;14.32;;;11.82;;
80694;SDS011;70059;42.702;23.312;2024-02-26T10:03:51;14.43;;;12.43;;
80694;SDS011;70059;42.702;23.312;2024-02-26T10:06:26;14.48;;;11.73;;
80694;SDS011;70059;42.702;23.312;2024-02-26T10:11:56;14.68;;;10.50;;
80694;SDS011;70059;42.702;23.312;2024-02-26T10:14:24;13.48;;;12.13;;
80694;SDS011;70059;42.702;23.312;2024-02-26T10:16:53;14.10;;;12.63;;
80694;SDS011;70059;42.702;23.312;2024-02-26T10:19:24;18.70;;;12.75;;
80694;SDS011;70059;42.702;23.312;2024-02-26T10:22:08;13.57;;;12.00;;
80694;SDS011;70059;42.702;23.312;2024-02-26T10:24:34;12.95;;;11.55;;
80694;SDS011;70059;42.702;23.312;2024-02-26T10:27:06;14.30;;;11.65;;
80694;SDS011;70059;42.702;23.312;2024-02-26T10:29:40;14.07;;;12.27;;
80694;SDS011;70059;42.702;23.312;2024-02-26T10:32:11;12.35;;;11.07;;
80694;SDS011;70059;42.702;23.312;2024-02-26T10:34:55;10.90;;;9.85;;
80694;SDS011;70059;42.702;23.312;2024-02-26T10:37:22;12.48;;;11.20;;
80694;SDS011;70059;42.702;23.312;2024-02-26T10:39:50;12.48;;;11.23;;
80694;SDS011;70059;42.702;23.312;2024-02-26T10:45:30;13.13;;;11.82;;
80694;SDS011;70059;42.702;23.312;2024-02-26T10:47:57;12.00;;;10.77;;
80694;SDS011;70059;42.702;23.312;2024-02-26T10:50:54;13.35;;;11.48;;
80694;SDS011;70059;42.702;23.312;2024-02-26T10:56:40;12.70;;;10.75;;
80694;SDS011;70059;42.702;23.312;2024-02-26T11:04:36;13.23;;;10.55;;
80694;SDS011;70059;42.702;23.312;2024-02-26T11:07:12;12.43;;;11.18;;
80694;SDS011;70059;42.702;23.312;2024-02-26T11:09:54;11.65;;;10.45;;
80694;SDS011;70059;42.702;23.312;2024-02-26T11:12:23;12.63;;;11.25;;
80694;SDS011;70059;42.702;23.312;2024-02-26T11:15:39;11.02;;;9.93;;
80694;SDS011;70059;42.702;23.312;2024-02-26T11:18:11;12.23;;;10.38;;
80694;SDS011;70059;42.702;23.312;2024-02-26T11:21:08;11.80;;;10.63;;
80694;SDS011;70059;42.702;23.312;2024-02-26T11:23:44;12.48;;;11.23;;
80694;SDS011;70059;42.702;23.312;2024-02-26T11:26:48;12.73;;;10.90;;
80694;SDS011;70059;42.702;23.312;2024-02-26T11:29:24;11.20;;;9.30;;
80694;SDS011;70059;42.702;23.312;2024-02-26T11:32:00;11.82;;;9.77;;
80694;SDS011;70059;42.702;23.312;2024-02-26T11:34:30;11.55;;;10.48;;
80694;SDS011;70059;42.702;23.312;2024-02-26T11:37:08;12.65;;;11.35;;
80694;SDS011;70059;42.702;23.312;2024-02-26T11:48:15;13.63;;;11.15;;
80694;SDS011;70059;42.702;23.312;2024-02-26T11:55:47;13.25;;;9.57;;
80694;SDS011;70059;42.702;23.312;2024-02-26T11:58:13;11.98;;;10.48;;
80694;SDS011;70059;42.702;23.312;2024-02-26T12:00:42;12.43;;;10.48;;
80694;SDS011;70059;42.702;23.312;2024-02-26T12:03:07;11.52;;;10.30;;
80694;SDS011;70059;42.702;23.312;2024-02-26T12:05:36;11.93;;;10.73;;
80694;SDS011;70059;42.702;23.312;2024-02-26T12:08:03;10.80;;;9.63;;
80694;SDS011;70059;42.702;23.312;2024-02-26T12:10:32;10.45;;;8.65;;
80694;SDS011;70059;42.702;23.312;2024-02-26T12:13:16;10.23;;;9.23;;
80694;SDS011;70059;42.702;23.312;2024-02-26T12:15:45;13.88;;;9.32;;
80694;SDS011;70059;42.702;23.312;2024-02-26T12:18:28;9.95;;;8.98;;
80694;SDS011;70059;42.702;23.312;2024-02-26T12:21:03;11.82;;;10.73;;
80694;SDS011;70059;42.702;23.312;2024-02-26T12:23:29;11.00;;;9.88;;
80694;SDS011;70059;42.702;23.312;2024-02-26T12:25:58;9.57;;;8.73;;
80694;SDS011;70059;42.702;23.312;2024-02-26T12:28:30;10.60;;;9.55;;
80694;SDS011;70059;42.702;23.312;2024-02-26T12:30:56;11.18;;;8.20;;
80694;SDS011;70059;42.702;23.312;2024-02-26T12:33:24;11.07;;;8.88;;
80694;SDS011;70059;42.702;23.312;2024-02-26T12:35:51;10.38;;;9.32;;
80694;SDS011;70059;42.702;23.312;2024-02-26T12:38:17;10.05;;;9.05;;
80694;SDS011;70059;42.702;23.312;2024-02-26T12:40:44;9.50;;;8.60;;
80694;SDS011;70059;42.702;23.312;2024-02-26T12:43:11;10.45;;;9.45;;
80694;SDS011;70059;42.702;23.312;2024-02-26T12:45:41;11.13;;;9.50;;
80694;SDS011;70059;42.702;23.312;2024-02-26T12:48:07;11.18;;;9.68;;
80694;SDS011;70059;42.702;23.312;2024-02-26T12:50:33;14.43;;;8.98;;
80694;SDS011;70059;42.702;23.312;2024-02-26T12:52:59;10.88;;;9.30;;
80694;SDS011;70059;42.702;23.312;2024-02-26T12:55:25;9.63;;;8.82;;
80694;SDS011;70059;42.702;23.312;2024-02-26T12:57:52;10.48;;;9.48;;
80694;SDS011;70059;42.702;23.312;2024-02-26T13:00:26;10.95;;;9.65;;
80694;SDS011;70059;42.702;23.312;2024-02-26T13:02:54;9.75;;;8.38;;
80694;SDS011;70059;42.702;23.312;2024-02-26T13:07:50;10.55;;;9.45;;
80694;SDS011;70059;42.702;23.312;2024-02-26T13:10:18;12.02;;;10.00;;
80694;SDS011;70059;42.702;23.312;2024-02-26T13:12:44;12.68;;;10.20;;
80694;SDS011;70059;42.702;23.312;2024-02-26T13:15:19;10.50;;;9.52;;
80694;SDS011;70059;42.702;23.312;2024-02-26T13:17:46;10.68;;;9.60;;
80694;SDS011;70059;42.702;23.312;2024-02-26T13:20:12;10.82;;;9.93;;
80694;SDS011;70059;42.702;23.312;2024-02-26T13:22:40;9.85;;;8.90;;
80694;SDS011;70059;42.702;23.312;2024-02-26T13:25:05;12.52;;;9.43;;
80694;SDS011;70059;42.702;23.312;2024-02-26T13:27:32;10.70;;;9.60;;
80694;SDS011;70059;42.702;23.312;2024-02-26T13:32:34;10.80;;;9.27;;
80694;SDS011;70059;42.702;23.312;2024-02-26T13:35:13;10.98;;;9.45;;
80694;SDS011;70059;42.702;23.312;2024-02-26T13:37:39;10.40;;;9.40;;
80694;SDS011;70059;42.702;23.312;2024-02-26T13:40:05;11.27;;;8.80;;
80694;SDS011;70059;42.702;23.312;2024-02-26T13:42:41;10.13;;;8.70;;
80694;SDS011;70059;42.702;23.312;2024-02-26T13:45:07;11.40;;;8.98;;
80694;SDS011;70059;42.702;23.312;2024-02-26T13:47:40;10.73;;;9.07;;
80694;SDS011;70059;42.702;23.312;2024-02-26T13:50:06;14.63;;;9.40;;
80694;SDS011;70059;42.702;23.312;2024-02-26T13:58:32;10.55;;;9.52;;
80694;SDS011;70059;42.702;23.312;2024-02-26T14:00:58;9.98;;;8.98;;
80694;SDS011;70059;42.702;23.312;2024-02-26T14:03:28;9.93;;;9.02;;
80694;SDS011;70059;42.702;23.312;2024-02-26T14:05:54;10.68;;;8.68;;
80694;SDS011;70059;42.702;23.312;2024-02-26T14:08:19;12.60;;;10.20;;
80694;SDS011;70059;42.702;23.312;2024-02-26T14:10:45;10.07;;;9.05;;
80694;SDS011;70059;42.702;23.312;2024-02-26T14:13:11;11.23;;;9.18;;
80694;SDS011;70059;42.702;23.312;2024-02-26T14:15:37;9.98;;;9.05;;
80694;SDS011;70059;42.702;23.312;2024-02-26T14:18:04;11.25;;;9.38;;
80694;SDS011;70059;42.702;23.312;2024-02-26T14:20:36;10.38;;;9.48;;
80694;SDS011;70059;42.702;23.312;2024-02-26T14:23:03;11.27;;;8.93;;
80694;SDS011;70059;42.702;23.312;2024-02-26T14:25:29;12.98;;;9.05;;
80694;SDS011;70059;42.702;23.312;2024-02-26T14:27:55;10.40;;;8.73;;
80694;SDS011;70059;42.702;23.312;2024-02-26T14:30:29;9.70;;;8.80;;
80694;SDS011;70059;42.702;23.312;2024-02-26T14:32:54;10.88;;;8.88;;
80694;SDS011;70059;42.702;23.312;2024-02-26T14:35:20;11.02;;;8.95;;
80694;SDS011;70059;42.702;23.312;2024-02-26T14:37:46;15.23;;;9.40;;
80694;SDS011;70059;42.702;23.312;2024-02-26T14:40:13;9.40;;;8.50;;
80694;SDS011;70059;42.702;23.312;2024-02-26T14:42:39;8.57;;;7.28;;
80694;SDS011;70059;42.702;23.312;2024-02-26T14:45:06;10.63;;;8.65;;
80694;SDS011;70059;42.702;23.312;2024-02-26T14:47:37;10.65;;;8.10;;
80694;SDS011;70059;42.702;23.312;2024-02-26T14:50:04;10.00;;;8.98;;
80694;SDS011;70059;42.702;23.312;2024-02-26T14:52:31;9.20;;;8.20;;
80694;SDS011;70059;42.702;23.312;2024-02-26T14:54:56;9.55;;;8.57;;
80694;SDS011;70059;42.702;23.312;2024-02-26T14:57:24;12.65;;;8.40;;
80694;SDS011;70059;42.702;23.312;2024-02-26T14:59:49;12.05;;;8.98;;
80694;SDS011;70059;42.702;23.312;2024-02-26T15:04:54;12.65;;;8.88;;